CheckWX is a tool to help pilots better visualize weather data.  It is not intended as a substitute for an official pre-flight weather briefing.

14:20:22 UTC

KDRT METAR
Del Rio International Airport
Del Rio, Texas, USA
Current

27 mins ago

KDRT 221353Z AUTO 11008KT 10SM BKN011 OVC021 20/17 A2995 RMK AO2 SLP129 T02000167
Observed
Apr-22 @ 13:53 UTC
Wind
  • 110° at 8 KTS
Visibility
10 SM
Flight Rules
MVFR
Cloud Levels
  • Broken at 1,100' AGL
  • Overcast at 2,100' AGL
Temperature
20°C / 68°F
Dewpoint
17°C / 63°F
Humidity
83%
Altimeter
29.95" Hg
Pressure
1014.22 hPa
Previous

1 hour ago

KDRT 221253Z AUTO 11010G17KT 10SM BKN010 OVC017 19/17 A2995 RMK AO2 CIG 009V013 SLP127 T01940167
Observed
Apr-22 @ 12:53 UTC
Wind
  • 110° at 10 KTS
  • Gusting to 17 KTS
Visibility
10 SM
Flight Rules
MVFR
Cloud Levels
  • Broken at 1,000' AGL
  • Overcast at 1,700' AGL
Temperature
19°C / 66°F
Dewpoint
17°C / 63°F
Humidity
88%
Altimeter
29.95" Hg
Pressure
1014.22 hPa
Previous

2 hours ago

KDRT 221229Z AUTO 11008KT 10SM BKN010 19/17 A2993 RMK AO2 CIG 008V013 PRESRR T01890167
Observed
Apr-22 @ 12:29 UTC
Wind
  • 110° at 8 KTS
Visibility
10 SM
Flight Rules
MVFR
Cloud Levels
  • Broken at 1,000' AGL
Temperature
19°C / 66°F
Dewpoint
17°C / 63°F
Humidity
88%
Altimeter
29.93" Hg
Pressure
1013.52 hPa